sensor_id;sensor_type;location;lat;lon;timestamp;P1;durP1;ratioP1;P2;durP2;ratioP2
29280;SDS011;25048;49.590;11.026;2022-10-31T00:01:28;8.37;;;4.23;;
29280;SDS011;25048;49.590;11.026;2022-10-31T00:03:57;12.87;;;4.13;;
29280;SDS011;25048;49.590;11.026;2022-10-31T00:06:25;7.00;;;4.03;;
29280;SDS011;25048;49.590;11.026;2022-10-31T00:08:59;17.27;;;4.70;;
29280;SDS011;25048;49.590;11.026;2022-10-31T00:11:23;14.27;;;4.10;;
29280;SDS011;25048;49.590;11.026;2022-10-31T00:13:51;11.37;;;3.83;;
29280;SDS011;25048;49.590;11.026;2022-10-31T00:16:20;9.50;;;4.20;;
29280;SDS011;25048;49.590;11.026;2022-10-31T00:18:53;10.77;;;4.07;;
29280;SDS011;25048;49.590;11.026;2022-10-31T00:21:22;9.43;;;4.57;;
29280;SDS011;25048;49.590;11.026;2022-10-31T00:23:50;12.73;;;5.13;;
29280;SDS011;25048;49.590;11.026;2022-10-31T00:26:18;11.93;;;4.83;;
29280;SDS011;25048;49.590;11.026;2022-10-31T00:28:46;13.97;;;5.60;;
29280;SDS011;25048;49.590;11.026;2022-10-31T00:31:14;12.47;;;5.03;;
29280;SDS011;25048;49.590;11.026;2022-10-31T00:33:42;13.33;;;5.23;;
29280;SDS011;25048;49.590;11.026;2022-10-31T00:36:13;17.67;;;5.13;;
29280;SDS011;25048;49.590;11.026;2022-10-31T00:38:43;16.20;;;4.93;;
29280;SDS011;25048;49.590;11.026;2022-10-31T00:41:12;13.10;;;5.33;;
29280;SDS011;25048;49.590;11.026;2022-10-31T00:43:41;12.37;;;4.93;;
29280;SDS011;25048;49.590;11.026;2022-10-31T00:46:10;9.60;;;4.57;;
29280;SDS011;25048;49.590;11.026;2022-10-31T00:48:38;20.77;;;5.50;;
29280;SDS011;25048;49.590;11.026;2022-10-31T00:51:06;12.00;;;5.27;;
29280;SDS011;25048;49.590;11.026;2022-10-31T00:53:33;10.63;;;4.83;;
29280;SDS011;25048;49.590;11.026;2022-10-31T00:58:48;11.60;;;4.87;;
29280;SDS011;25048;49.590;11.026;2022-10-31T01:01:15;10.03;;;5.33;;
29280;SDS011;25048;49.590;11.026;2022-10-31T01:03:43;10.80;;;4.80;;
29280;SDS011;25048;49.590;11.026;2022-10-31T01:06:11;12.47;;;4.87;;
29280;SDS011;25048;49.590;11.026;2022-10-31T01:08:40;12.23;;;5.03;;
29280;SDS011;25048;49.590;11.026;2022-10-31T01:11:10;7.53;;;4.57;;
29280;SDS011;25048;49.590;11.026;2022-10-31T01:13:40;13.27;;;5.50;;
29280;SDS011;25048;49.590;11.026;2022-10-31T01:16:10;10.83;;;4.67;;
29280;SDS011;25048;49.590;11.026;2022-10-31T01:18:39;8.97;;;4.50;;
29280;SDS011;25048;49.590;11.026;2022-10-31T01:21:07;14.73;;;4.93;;
29280;SDS011;25048;49.590;11.026;2022-10-31T01:23:37;8.93;;;4.90;;
29280;SDS011;25048;49.590;11.026;2022-10-31T01:26:06;12.17;;;4.70;;
29280;SDS011;25048;49.590;11.026;2022-10-31T01:28:39;16.90;;;5.70;;
29280;SDS011;25048;49.590;11.026;2022-10-31T01:31:12;11.73;;;5.07;;
29280;SDS011;25048;49.590;11.026;2022-10-31T01:33:40;16.20;;;5.53;;
29280;SDS011;25048;49.590;11.026;2022-10-31T01:36:12;18.10;;;5.90;;
29280;SDS011;25048;49.590;11.026;2022-10-31T01:39:00;21.43;;;6.60;;
29280;SDS011;25048;49.590;11.026;2022-10-31T01:41:32;20.47;;;6.53;;
29280;SDS011;25048;49.590;11.026;2022-10-31T01:44:03;16.60;;;6.20;;
29280;SDS011;25048;49.590;11.026;2022-10-31T01:52:28;24.37;;;6.43;;
29280;SDS011;25048;49.590;11.026;2022-10-31T01:55:13;14.20;;;6.20;;
29280;SDS011;25048;49.590;11.026;2022-10-31T01:57:46;19.33;;;6.27;;
29280;SDS011;25048;49.590;11.026;2022-10-31T02:00:15;14.20;;;5.70;;
29280;SDS011;25048;49.590;11.026;2022-10-31T02:02:43;18.27;;;5.97;;
29280;SDS011;25048;49.590;11.026;2022-10-31T02:05:14;17.63;;;6.53;;
29280;SDS011;25048;49.590;11.026;2022-10-31T02:07:54;13.20;;;6.70;;
29280;SDS011;25048;49.590;11.026;2022-10-31T02:10:23;18.67;;;6.73;;
29280;SDS011;25048;49.590;11.026;2022-10-31T02:12:52;20.67;;;6.83;;
29280;SDS011;25048;49.590;11.026;2022-10-31T02:15:22;15.40;;;6.40;;
29280;SDS011;25048;49.590;11.026;2022-10-31T02:17:50;15.27;;;7.50;;
29280;SDS011;25048;49.590;11.026;2022-10-31T02:20:25;27.37;;;7.87;;
29280;SDS011;25048;49.590;11.026;2022-10-31T02:26:01;26.43;;;8.23;;
29280;SDS011;25048;49.590;11.026;2022-10-31T02:28:41;30.97;;;8.30;;
29280;SDS011;25048;49.590;11.026;2022-10-31T02:31:22;24.97;;;7.60;;
29280;SDS011;25048;49.590;11.026;2022-10-31T02:34:17;21.57;;;7.63;;
29280;SDS011;25048;49.590;11.026;2022-10-31T02:37:19;31.30;;;8.27;;
29280;SDS011;25048;49.590;11.026;2022-10-31T02:39:45;22.80;;;7.47;;
29280;SDS011;25048;49.590;11.026;2022-10-31T02:42:18;18.07;;;7.67;;
29280;SDS011;25048;49.590;11.026;2022-10-31T02:47:27;21.03;;;7.60;;
29280;SDS011;25048;49.590;11.026;2022-10-31T02:50:14;18.30;;;6.60;;
29280;SDS011;25048;49.590;11.026;2022-10-31T02:52:49;37.80;;;8.53;;
29280;SDS011;25048;49.590;11.026;2022-10-31T02:57:59;20.07;;;8.10;;
29280;SDS011;25048;49.590;11.026;2022-10-31T03:00:34;16.17;;;6.93;;
29280;SDS011;25048;49.590;11.026;2022-10-31T03:05:44;23.90;;;6.63;;
29280;SDS011;25048;49.590;11.026;2022-10-31T03:10:51;22.50;;;6.63;;
29280;SDS011;25048;49.590;11.026;2022-10-31T03:15:53;16.23;;;7.10;;
29280;SDS011;25048;49.590;11.026;2022-10-31T03:21:01;15.33;;;6.17;;
29280;SDS011;25048;49.590;11.026;2022-10-31T03:23:32;17.77;;;6.83;;
29280;SDS011;25048;49.590;11.026;2022-10-31T03:26:03;26.27;;;6.80;;
29280;SDS011;25048;49.590;11.026;2022-10-31T03:28:37;22.73;;;5.80;;
29280;SDS011;25048;49.590;11.026;2022-10-31T03:31:12;16.30;;;6.67;;
29280;SDS011;25048;49.590;11.026;2022-10-31T03:33:42;18.93;;;5.70;;
29280;SDS011;25048;49.590;11.026;2022-10-31T03:36:12;18.70;;;6.43;;
29280;SDS011;25048;49.590;11.026;2022-10-31T03:38:42;22.10;;;7.63;;
29280;SDS011;25048;49.590;11.026;2022-10-31T03:41:16;24.37;;;7.10;;
29280;SDS011;25048;49.590;11.026;2022-10-31T03:43:46;25.13;;;8.10;;
29280;SDS011;25048;49.590;11.026;2022-10-31T03:46:16;21.50;;;7.87;;
29280;SDS011;25048;49.590;11.026;2022-10-31T03:48:44;22.10;;;7.60;;
29280;SDS011;25048;49.590;11.026;2022-10-31T03:51:17;17.30;;;7.90;;
29280;SDS011;25048;49.590;11.026;2022-10-31T03:53:45;15.77;;;6.30;;
29280;SDS011;25048;49.590;11.026;2022-10-31T03:56:24;16.90;;;6.73;;
29280;SDS011;25048;49.590;11.026;2022-10-31T03:58:55;19.67;;;6.57;;
29280;SDS011;25048;49.590;11.026;2022-10-31T04:01:25;17.47;;;8.17;;
29280;SDS011;25048;49.590;11.026;2022-10-31T04:03:54;16.23;;;6.63;;
29280;SDS011;25048;49.590;11.026;2022-10-31T04:06:23;16.53;;;7.03;;
29280;SDS011;25048;49.590;11.026;2022-10-31T04:08:52;10.20;;;5.80;;
29280;SDS011;25048;49.590;11.026;2022-10-31T04:11:23;17.40;;;6.60;;
29280;SDS011;25048;49.590;11.026;2022-10-31T04:13:53;13.80;;;6.23;;
29280;SDS011;25048;49.590;11.026;2022-10-31T04:16:22;10.80;;;6.10;;
29280;SDS011;25048;49.590;11.026;2022-10-31T04:18:51;15.00;;;6.63;;
29280;SDS011;25048;49.590;11.026;2022-10-31T04:21:19;20.63;;;6.70;;
29280;SDS011;25048;49.590;11.026;2022-10-31T04:23:48;10.63;;;5.50;;
29280;SDS011;25048;49.590;11.026;2022-10-31T04:26:15;10.80;;;6.20;;
29280;SDS011;25048;49.590;11.026;2022-10-31T04:28:43;13.07;;;5.97;;
29280;SDS011;25048;49.590;11.026;2022-10-31T04:31:11;16.90;;;5.70;;
29280;SDS011;25048;49.590;11.026;2022-10-31T04:33:38;11.90;;;6.37;;
29280;SDS011;25048;49.590;11.026;2022-10-31T04:36:06;14.17;;;6.77;;
29280;SDS011;25048;49.590;11.026;2022-10-31T04:38:34;8.97;;;5.97;;
29280;SDS011;25048;49.590;11.026;2022-10-31T04:41:01;10.43;;;5.73;;
29280;SDS011;25048;49.590;11.026;2022-10-31T04:43:29;18.27;;;5.90;;
29280;SDS011;25048;49.590;11.026;2022-10-31T04:45:56;16.23;;;6.63;;
29280;SDS011;25048;49.590;11.026;2022-10-31T04:48:24;19.73;;;6.33;;
29280;SDS011;25048;49.590;11.026;2022-10-31T04:50:52;11.70;;;5.80;;
29280;SDS011;25048;49.590;11.026;2022-10-31T04:53:19;13.07;;;7.07;;
29280;SDS011;25048;49.590;11.026;2022-10-31T04:55:47;12.77;;;6.80;;
29280;SDS011;25048;49.590;11.026;2022-10-31T04:58:14;20.57;;;8.07;;
29280;SDS011;25048;49.590;11.026;2022-10-31T05:00:42;12.03;;;6.83;;
29280;SDS011;25048;49.590;11.026;2022-10-31T05:03:09;13.00;;;6.90;;
29280;SDS011;25048;49.590;11.026;2022-10-31T05:05:37;13.67;;;7.03;;
29280;SDS011;25048;49.590;11.026;2022-10-31T05:08:04;12.43;;;6.23;;
29280;SDS011;25048;49.590;11.026;2022-10-31T05:10:32;12.63;;;5.97;;
29280;SDS011;25048;49.590;11.026;2022-10-31T05:13:00;12.30;;;6.77;;
29280;SDS011;25048;49.590;11.026;2022-10-31T05:15:28;18.93;;;9.40;;
29280;SDS011;25048;49.590;11.026;2022-10-31T05:17:56;16.93;;;7.33;;
29280;SDS011;25048;49.590;11.026;2022-10-31T05:20:25;18.17;;;7.37;;
29280;SDS011;25048;49.590;11.026;2022-10-31T05:22:55;16.17;;;6.63;;
29280;SDS011;25048;49.590;11.026;2022-10-31T05:25:24;12.27;;;6.63;;
29280;SDS011;25048;49.590;11.026;2022-10-31T05:27:54;18.07;;;6.93;;
29280;SDS011;25048;49.590;11.026;2022-10-31T05:30:30;12.83;;;6.93;;
29280;SDS011;25048;49.590;11.026;2022-10-31T05:32:58;16.07;;;6.77;;
29280;SDS011;25048;49.590;11.026;2022-10-31T05:35:27;17.70;;;6.77;;
29280;SDS011;25048;49.590;11.026;2022-10-31T05:37:57;20.53;;;7.13;;
29280;SDS011;25048;49.590;11.026;2022-10-31T05:40:25;14.60;;;6.23;;
29280;SDS011;25048;49.590;11.026;2022-10-31T05:42:54;11.50;;;6.83;;
29280;SDS011;25048;49.590;11.026;2022-10-31T05:45:24;15.13;;;6.77;;
29280;SDS011;25048;49.590;11.026;2022-10-31T05:47:52;13.73;;;5.67;;
29280;SDS011;25048;49.590;11.026;2022-10-31T05:50:22;12.80;;;5.60;;
29280;SDS011;25048;49.590;11.026;2022-10-31T05:52:54;12.97;;;5.80;;
29280;SDS011;25048;49.590;11.026;2022-10-31T05:55:23;16.10;;;5.63;;
29280;SDS011;25048;49.590;11.026;2022-10-31T05:57:52;15.00;;;5.87;;
29280;SDS011;25048;49.590;11.026;2022-10-31T06:00:21;15.27;;;6.07;;
29280;SDS011;25048;49.590;11.026;2022-10-31T06:02:49;13.17;;;6.00;;
29280;SDS011;25048;49.590;11.026;2022-10-31T06:05:18;14.43;;;6.37;;
29280;SDS011;25048;49.590;11.026;2022-10-31T06:07:45;11.57;;;6.10;;
29280;SDS011;25048;49.590;11.026;2022-10-31T06:10:13;19.63;;;7.33;;
29280;SDS011;25048;49.590;11.026;2022-10-31T06:12:41;17.67;;;7.30;;
29280;SDS011;25048;49.590;11.026;2022-10-31T06:15:08;13.63;;;5.97;;
29280;SDS011;25048;49.590;11.026;2022-10-31T06:17:36;10.90;;;6.20;;
29280;SDS011;25048;49.590;11.026;2022-10-31T06:20:04;13.77;;;6.20;;
29280;SDS011;25048;49.590;11.026;2022-10-31T06:22:32;9.40;;;5.53;;
29280;SDS011;25048;49.590;11.026;2022-10-31T06:25:00;13.60;;;6.50;;
29280;SDS011;25048;49.590;11.026;2022-10-31T06:27:28;16.87;;;7.70;;
29280;SDS011;25048;49.590;11.026;2022-10-31T06:29:56;16.20;;;7.07;;
29280;SDS011;25048;49.590;11.026;2022-10-31T06:32:23;22.23;;;7.63;;
29280;SDS011;25048;49.590;11.026;2022-10-31T06:34:51;19.70;;;7.17;;
29280;SDS011;25048;49.590;11.026;2022-10-31T06:37:18;23.23;;;8.53;;
29280;SDS011;25048;49.590;11.026;2022-10-31T06:39:46;15.73;;;7.30;;
29280;SDS011;25048;49.590;11.026;2022-10-31T06:42:14;19.23;;;7.77;;
29280;SDS011;25048;49.590;11.026;2022-10-31T06:44:42;19.60;;;7.27;;
29280;SDS011;25048;49.590;11.026;2022-10-31T06:47:10;19.87;;;8.70;;
29280;SDS011;25048;49.590;11.026;2022-10-31T06:49:37;11.20;;;7.23;;
29280;SDS011;25048;49.590;11.026;2022-10-31T06:52:05;25.33;;;8.97;;
29280;SDS011;25048;49.590;11.026;2022-10-31T06:54:32;25.00;;;8.00;;
29280;SDS011;25048;49.590;11.026;2022-10-31T06:57:00;16.80;;;7.93;;
29280;SDS011;25048;49.590;11.026;2022-10-31T06:59:27;21.27;;;8.20;;
29280;SDS011;25048;49.590;11.026;2022-10-31T07:01:55;30.10;;;9.47;;
29280;SDS011;25048;49.590;11.026;2022-10-31T07:04:24;20.20;;;9.13;;
29280;SDS011;25048;49.590;11.026;2022-10-31T07:06:52;22.87;;;9.63;;
29280;SDS011;25048;49.590;11.026;2022-10-31T07:09:19;22.40;;;8.90;;
29280;SDS011;25048;49.590;11.026;2022-10-31T07:11:47;23.80;;;9.53;;
29280;SDS011;25048;49.590;11.026;2022-10-31T07:14:14;24.47;;;10.17;;
29280;SDS011;25048;49.590;11.026;2022-10-31T07:16:42;26.20;;;10.50;;
29280;SDS011;25048;49.590;11.026;2022-10-31T07:19:09;31.00;;;9.43;;
29280;SDS011;25048;49.590;11.026;2022-10-31T07:21:37;27.83;;;8.87;;
29280;SDS011;25048;49.590;11.026;2022-10-31T07:24:04;20.93;;;8.60;;
29280;SDS011;25048;49.590;11.026;2022-10-31T07:26:32;28.70;;;8.47;;
29280;SDS011;25048;49.590;11.026;2022-10-31T07:28:59;17.90;;;7.93;;
29280;SDS011;25048;49.590;11.026;2022-10-31T07:31:27;15.40;;;7.80;;
29280;SDS011;25048;49.590;11.026;2022-10-31T07:33:54;16.03;;;7.50;;
29280;SDS011;25048;49.590;11.026;2022-10-31T07:36:22;25.70;;;7.23;;
29280;SDS011;25048;49.590;11.026;2022-10-31T07:38:49;14.83;;;7.43;;
29280;SDS011;25048;49.590;11.026;2022-10-31T07:41:17;10.60;;;7.03;;
29280;SDS011;25048;49.590;11.026;2022-10-31T07:43:45;13.90;;;7.80;;
29280;SDS011;25048;49.590;11.026;2022-10-31T07:46:12;18.00;;;8.13;;
29280;SDS011;25048;49.590;11.026;2022-10-31T07:48:40;11.57;;;7.23;;
29280;SDS011;25048;49.590;11.026;2022-10-31T07:51:07;13.27;;;6.93;;
29280;SDS011;25048;49.590;11.026;2022-10-31T07:53:35;15.83;;;7.30;;
29280;SDS011;25048;49.590;11.026;2022-10-31T07:56:02;16.27;;;6.67;;
29280;SDS011;25048;49.590;11.026;2022-10-31T07:58:30;10.87;;;7.00;;
29280;SDS011;25048;49.590;11.026;2022-10-31T08:00:57;17.53;;;6.17;;
29280;SDS011;25048;49.590;11.026;2022-10-31T08:03:25;24.33;;;7.30;;
29280;SDS011;25048;49.590;11.026;2022-10-31T08:05:52;14.00;;;6.37;;
29280;SDS011;25048;49.590;11.026;2022-10-31T08:08:20;17.03;;;7.67;;
29280;SDS011;25048;49.590;11.026;2022-10-31T08:10:47;14.73;;;7.10;;
29280;SDS011;25048;49.590;11.026;2022-10-31T08:13:15;11.80;;;7.03;;
29280;SDS011;25048;49.590;11.026;2022-10-31T08:15:42;13.30;;;7.17;;
29280;SDS011;25048;49.590;11.026;2022-10-31T08:18:12;12.90;;;6.57;;
29280;SDS011;25048;49.590;11.026;2022-10-31T08:20:41;19.30;;;6.83;;
29280;SDS011;25048;49.590;11.026;2022-10-31T08:23:10;14.30;;;7.90;;
29280;SDS011;25048;49.590;11.026;2022-10-31T08:25:39;15.77;;;7.53;;
29280;SDS011;25048;49.590;11.026;2022-10-31T08:28:08;20.03;;;7.87;;
29280;SDS011;25048;49.590;11.026;2022-10-31T08:30:37;16.93;;;7.63;;
29280;SDS011;25048;49.590;11.026;2022-10-31T08:33:06;15.10;;;7.87;;
29280;SDS011;25048;49.590;11.026;2022-10-31T08:35:38;16.97;;;8.80;;
29280;SDS011;25048;49.590;11.026;2022-10-31T08:38:06;21.53;;;9.63;;
29280;SDS011;25048;49.590;11.026;2022-10-31T08:40:35;18.30;;;9.63;;
29280;SDS011;25048;49.590;11.026;2022-10-31T08:43:10;19.60;;;10.23;;
29280;SDS011;25048;49.590;11.026;2022-10-31T08:45:34;15.40;;;8.93;;
29280;SDS011;25048;49.590;11.026;2022-10-31T08:48:08;19.93;;;10.23;;
29280;SDS011;25048;49.590;11.026;2022-10-31T08:50:32;28.00;;;10.37;;
29280;SDS011;25048;49.590;11.026;2022-10-31T08:53:09;23.53;;;9.37;;
29280;SDS011;25048;49.590;11.026;2022-10-31T08:55:38;19.73;;;9.17;;
29280;SDS011;25048;49.590;11.026;2022-10-31T08:58:07;16.13;;;8.67;;
29280;SDS011;25048;49.590;11.026;2022-10-31T09:00:39;14.80;;;7.47;;
29280;SDS011;25048;49.590;11.026;2022-10-31T09:03:12;17.97;;;7.60;;
29280;SDS011;25048;49.590;11.026;2022-10-31T09:05:40;16.70;;;7.33;;
29280;SDS011;25048;49.590;11.026;2022-10-31T09:08:08;12.43;;;6.83;;
29280;SDS011;25048;49.590;11.026;2022-10-31T09:10:36;15.23;;;7.30;;
29280;SDS011;25048;49.590;11.026;2022-10-31T09:13:12;17.77;;;7.40;;
29280;SDS011;25048;49.590;11.026;2022-10-31T09:15:40;10.13;;;6.33;;
29280;SDS011;25048;49.590;11.026;2022-10-31T09:18:10;11.57;;;6.57;;
29280;SDS011;25048;49.590;11.026;2022-10-31T09:20:39;10.57;;;6.07;;
29280;SDS011;25048;49.590;11.026;2022-10-31T09:23:15;9.13;;;6.30;;
29280;SDS011;25048;49.590;11.026;2022-10-31T09:25:47;9.80;;;6.07;;
29280;SDS011;25048;49.590;11.026;2022-10-31T09:28:17;12.20;;;6.13;;
29280;SDS011;25048;49.590;11.026;2022-10-31T09:30:47;8.70;;;5.73;;
29280;SDS011;25048;49.590;11.026;2022-10-31T09:33:17;6.33;;;4.93;;
29280;SDS011;25048;49.590;11.026;2022-10-31T09:35:45;9.40;;;6.13;;
29280;SDS011;25048;49.590;11.026;2022-10-31T09:38:16;9.70;;;5.70;;
29280;SDS011;25048;49.590;11.026;2022-10-31T09:41:20;11.40;;;6.20;;
29280;SDS011;25048;49.590;11.026;2022-10-31T09:43:29;9.60;;;6.53;;
29280;SDS011;25048;49.590;11.026;2022-10-31T09:52:00;8.58;;;5.60;;
29280;SDS011;25048;49.590;11.026;2022-10-31T09:54:36;12.23;;;6.13;;
29280;SDS011;25048;49.590;11.026;2022-10-31T09:57:14;8.68;;;5.28;;
29280;SDS011;25048;49.590;11.026;2022-10-31T09:59:44;9.68;;;5.72;;
29280;SDS011;25048;49.590;11.026;2022-10-31T10:02:19;8.98;;;5.95;;
29280;SDS011;25048;49.590;11.026;2022-10-31T10:04:49;11.08;;;5.47;;
29280;SDS011;25048;49.590;11.026;2022-10-31T10:10:17;9.67;;;5.23;;
29280;SDS011;25048;49.590;11.026;2022-10-31T10:15:34;10.38;;;5.80;;
29280;SDS011;25048;49.590;11.026;2022-10-31T10:18:20;9.48;;;5.47;;
29280;SDS011;25048;49.590;11.026;2022-10-31T10:21:02;9.58;;;5.20;;
29280;SDS011;25048;49.590;11.026;2022-10-31T10:23:51;12.00;;;6.30;;
29280;SDS011;25048;49.590;11.026;2022-10-31T10:26:34;18.20;;;7.30;;
29280;SDS011;25048;49.590;11.026;2022-10-31T10:29:02;8.30;;;6.42;;
29280;SDS011;25048;49.590;11.026;2022-10-31T10:31:37;13.98;;;7.37;;
29280;SDS011;25048;49.590;11.026;2022-10-31T10:37:11;8.43;;;6.05;;
29280;SDS011;25048;49.590;11.026;2022-10-31T10:39:40;10.63;;;6.90;;
29280;SDS011;25048;49.590;11.026;2022-10-31T10:42:13;11.65;;;6.92;;
29280;SDS011;25048;49.590;11.026;2022-10-31T10:45:00;10.23;;;6.47;;
29280;SDS011;25048;49.590;11.026;2022-10-31T10:48:27;9.05;;;6.53;;
29280;SDS011;25048;49.590;11.026;2022-10-31T10:50:38;11.43;;;6.62;;
29280;SDS011;25048;49.590;11.026;2022-10-31T10:53:12;9.55;;;6.10;;
29280;SDS011;25048;49.590;11.026;2022-10-31T10:55:56;8.08;;;5.87;;
29280;SDS011;25048;49.590;11.026;2022-10-31T10:58:30;13.00;;;5.95;;
29280;SDS011;25048;49.590;11.026;2022-10-31T11:00:58;9.15;;;5.22;;
29280;SDS011;25048;49.590;11.026;2022-10-31T11:03:25;10.05;;;5.65;;
29280;SDS011;25048;49.590;11.026;2022-10-31T11:05:54;12.53;;;5.78;;
29280;SDS011;25048;49.590;11.026;2022-10-31T11:08:28;10.88;;;6.00;;
29280;SDS011;25048;49.590;11.026;2022-10-31T11:10:58;9.95;;;5.20;;
29280;SDS011;25048;49.590;11.026;2022-10-31T11:13:30;11.10;;;5.35;;
29280;SDS011;25048;49.590;11.026;2022-10-31T11:16:03;11.30;;;5.58;;
29280;SDS011;25048;49.590;11.026;2022-10-31T11:18:34;16.50;;;6.25;;
29280;SDS011;25048;49.590;11.026;2022-10-31T11:21:17;8.75;;;5.75;;
29280;SDS011;25048;49.590;11.026;2022-10-31T11:23:37;15.28;;;5.12;;
29280;SDS011;25048;49.590;11.026;2022-10-31T11:26:16;9.58;;;5.15;;
29280;SDS011;25048;49.590;11.026;2022-10-31T11:28:35;9.00;;;5.87;;
29280;SDS011;25048;49.590;11.026;2022-10-31T11:31:06;10.10;;;4.78;;
29280;SDS011;25048;49.590;11.026;2022-10-31T11:33:39;8.95;;;5.62;;
29280;SDS011;25048;49.590;11.026;2022-10-31T11:38:51;12.78;;;5.87;;
29280;SDS011;25048;49.590;11.026;2022-10-31T11:41:30;8.80;;;5.50;;
29280;SDS011;25048;49.590;11.026;2022-10-31T11:44:11;10.15;;;6.20;;
29280;SDS011;25048;49.590;11.026;2022-10-31T11:46:58;8.40;;;4.53;;
29280;SDS011;25048;49.590;11.026;2022-10-31T11:49:42;14.43;;;5.60;;
29280;SDS011;25048;49.590;11.026;2022-10-31T11:52:08;10.72;;;5.55;;
29280;SDS011;25048;49.590;11.026;2022-10-31T12:00:03;16.05;;;6.25;;
29280;SDS011;25048;49.590;11.026;2022-10-31T12:02:32;10.05;;;5.37;;
29280;SDS011;25048;49.590;11.026;2022-10-31T12:05:02;10.78;;;5.90;;
29280;SDS011;25048;49.590;11.026;2022-10-31T12:07:36;9.30;;;4.78;;
29280;SDS011;25048;49.590;11.026;2022-10-31T12:10:11;11.65;;;4.83;;
29280;SDS011;25048;49.590;11.026;2022-10-31T12:15:20;12.13;;;4.70;;
29280;SDS011;25048;49.590;11.026;2022-10-31T12:17:58;14.60;;;4.80;;
29280;SDS011;25048;49.590;11.026;2022-10-31T12:20:29;11.40;;;4.95;;
29280;SDS011;25048;49.590;11.026;2022-10-31T12:29:07;9.30;;;5.17;;
29280;SDS011;25048;49.590;11.026;2022-10-31T12:31:38;11.95;;;4.62;;
29280;SDS011;25048;49.590;11.026;2022-10-31T12:36:54;16.82;;;5.30;;
29280;SDS011;25048;49.590;11.026;2022-10-31T12:39:23;9.38;;;4.78;;
29280;SDS011;25048;49.590;11.026;2022-10-31T12:44:55;7.40;;;4.20;;
29280;SDS011;25048;49.590;11.026;2022-10-31T12:47:56;9.23;;;4.33;;
29280;SDS011;25048;49.590;11.026;2022-10-31T12:50:43;11.53;;;4.87;;
29280;SDS011;25048;49.590;11.026;2022-10-31T12:53:30;23.07;;;6.08;;
29280;SDS011;25048;49.590;11.026;2022-10-31T12:56:47;8.55;;;4.30;;
29280;SDS011;25048;49.590;11.026;2022-10-31T12:59:17;9.63;;;4.92;;
29280;SDS011;25048;49.590;11.026;2022-10-31T13:02:51;10.03;;;4.75;;
29280;SDS011;25048;49.590;11.026;2022-10-31T13:04:42;8.58;;;4.83;;
29280;SDS011;25048;49.590;11.026;2022-10-31T13:07:24;9.43;;;4.80;;
29280;SDS011;25048;49.590;11.026;2022-10-31T13:09:56;12.18;;;5.03;;
29280;SDS011;25048;49.590;11.026;2022-10-31T13:12:29;8.18;;;4.53;;
29280;SDS011;25048;49.590;11.026;2022-10-31T13:14:59;12.05;;;4.78;;
29280;SDS011;25048;49.590;11.026;2022-10-31T13:17:34;13.00;;;4.20;;
29280;SDS011;25048;49.590;11.026;2022-10-31T13:20:12;10.55;;;4.60;;
29280;SDS011;25048;49.590;11.026;2022-10-31T13:22:52;12.25;;;4.97;;
29280;SDS011;25048;49.590;11.026;2022-10-31T13:25:28;7.55;;;4.90;;
29280;SDS011;25048;49.590;11.026;2022-10-31T13:30:29;13.28;;;5.12;;
29280;SDS011;25048;49.590;11.026;2022-10-31T13:33:21;13.45;;;7.10;;
29280;SDS011;25048;49.590;11.026;2022-10-31T13:38:54;6.75;;;4.08;;
29280;SDS011;25048;49.590;11.026;2022-10-31T13:41:44;11.12;;;4.80;;
29280;SDS011;25048;49.590;11.026;2022-10-31T13:44:18;10.05;;;5.40;;
29280;SDS011;25048;49.590;11.026;2022-10-31T13:46:51;10.25;;;5.10;;
29280;SDS011;25048;49.590;11.026;2022-10-31T13:49:41;9.73;;;4.97;;
29280;SDS011;25048;49.590;11.026;2022-10-31T13:52:04;9.98;;;5.95;;
29280;SDS011;25048;49.590;11.026;2022-10-31T13:54:40;14.53;;;5.78;;
29280;SDS011;25048;49.590;11.026;2022-10-31T13:59:55;9.20;;;5.95;;
29280;SDS011;25048;49.590;11.026;2022-10-31T14:02:31;12.58;;;5.87;;
29280;SDS011;25048;49.590;11.026;2022-10-31T14:05:18;16.32;;;6.47;;
29280;SDS011;25048;49.590;11.026;2022-10-31T14:07:53;11.97;;;5.50;;
29280;SDS011;25048;49.590;11.026;2022-10-31T14:10:25;10.82;;;6.10;;
29280;SDS011;25048;49.590;11.026;2022-10-31T14:15:36;16.05;;;6.65;;
29280;SDS011;25048;49.590;11.026;2022-10-31T14:18:06;11.78;;;6.53;;
29280;SDS011;25048;49.590;11.026;2022-10-31T14:20:40;10.78;;;6.03;;
29280;SDS011;25048;49.590;11.026;2022-10-31T14:28:58;13.13;;;6.33;;
29280;SDS011;25048;49.590;11.026;2022-10-31T14:31:38;14.33;;;6.15;;
29280;SDS011;25048;49.590;11.026;2022-10-31T14:43:03;14.68;;;5.60;;
29280;SDS011;25048;49.590;11.026;2022-10-31T14:50:52;11.90;;;5.60;;
29280;SDS011;25048;49.590;11.026;2022-10-31T14:53:25;13.15;;;5.58;;
29280;SDS011;25048;49.590;11.026;2022-10-31T14:55:56;9.45;;;5.83;;
29280;SDS011;25048;49.590;11.026;2022-10-31T14:58:27;10.53;;;5.45;;
29280;SDS011;25048;49.590;11.026;2022-10-31T15:01:31;14.25;;;7.00;;
29280;SDS011;25048;49.590;11.026;2022-10-31T15:03:52;12.28;;;6.28;;
29280;SDS011;25048;49.590;11.026;2022-10-31T15:06:22;10.68;;;5.20;;
29280;SDS011;25048;49.590;11.026;2022-10-31T15:08:52;12.60;;;6.35;;
29280;SDS011;25048;49.590;11.026;2022-10-31T15:11:24;13.40;;;5.95;;
29280;SDS011;25048;49.590;11.026;2022-10-31T15:13:54;10.35;;;5.70;;
29280;SDS011;25048;49.590;11.026;2022-10-31T15:16:28;13.88;;;7.28;;
29280;SDS011;25048;49.590;11.026;2022-10-31T15:18:54;15.55;;;8.10;;
29280;SDS011;25048;49.590;11.026;2022-10-31T15:21:25;19.12;;;6.90;;
29280;SDS011;25048;49.590;11.026;2022-10-31T15:23:58;14.55;;;7.60;;
29280;SDS011;25048;49.590;11.026;2022-10-31T15:26:32;14.70;;;7.12;;
29280;SDS011;25048;49.590;11.026;2022-10-31T15:29:02;10.00;;;6.17;;
29280;SDS011;25048;49.590;11.026;2022-10-31T15:31:32;12.37;;;7.05;;
29280;SDS011;25048;49.590;11.026;2022-10-31T15:34:11;10.72;;;6.53;;
29280;SDS011;25048;49.590;11.026;2022-10-31T15:36:43;16.55;;;8.00;;
29280;SDS011;25048;49.590;11.026;2022-10-31T15:39:12;10.88;;;6.65;;
29280;SDS011;25048;49.590;11.026;2022-10-31T15:41:47;16.82;;;7.50;;
29280;SDS011;25048;49.590;11.026;2022-10-31T15:46:59;16.65;;;7.83;;
29280;SDS011;25048;49.590;11.026;2022-10-31T15:49:33;12.13;;;6.97;;
29280;SDS011;25048;49.590;11.026;2022-10-31T15:52:08;14.50;;;7.53;;
29280;SDS011;25048;49.590;11.026;2022-10-31T15:54:36;15.40;;;8.28;;
29280;SDS011;25048;49.590;11.026;2022-10-31T15:57:15;15.00;;;8.68;;
29280;SDS011;25048;49.590;11.026;2022-10-31T15:59:45;14.00;;;7.22;;
29280;SDS011;25048;49.590;11.026;2022-10-31T16:02:14;16.60;;;7.45;;
29280;SDS011;25048;49.590;11.026;2022-10-31T16:04:52;19.52;;;9.05;;
29280;SDS011;25048;49.590;11.026;2022-10-31T16:07:27;23.07;;;10.23;;
29280;SDS011;25048;49.590;11.026;2022-10-31T16:09:57;20.32;;;8.93;;
29280;SDS011;25048;49.590;11.026;2022-10-31T16:12:32;16.10;;;8.93;;
29280;SDS011;25048;49.590;11.026;2022-10-31T16:14:57;15.32;;;8.35;;
29280;SDS011;25048;49.590;11.026;2022-10-31T16:17:25;18.67;;;9.45;;
29280;SDS011;25048;49.590;11.026;2022-10-31T16:19:55;19.02;;;9.80;;
29280;SDS011;25048;49.590;11.026;2022-10-31T16:22:26;21.50;;;10.23;;
29280;SDS011;25048;49.590;11.026;2022-10-31T16:25:18;23.75;;;12.35;;
29280;SDS011;25048;49.590;11.026;2022-10-31T16:27:33;19.62;;;10.23;;